Time;durP1;ratioP1;P1;durP2;ratioP2;P2;SDS_P1;SDS_P2;PMS_P1;PMS_P2;Temp;Humidity;BMP_temperature;BMP_pressure;BME280_temperature;BME280_humidity;BME280_pressure;Samples;Min_cycle;Max_cycle;Signal;HPM_P1;HPM_P2
2023/07/02 01:30:03;;;;;;;17.63;9.05;;;22.50;99.90;;;;;;6213962;22;21427;-91
2023/07/02 01:32:39;;;;;;;14.98;8.07;;;22.60;99.90;;;;;;6173119;23;20055;-92
2023/07/02 01:35:19;;;;;;;;;;;;;;;;;;;;;
2023/07/02 01:38:11;;;;;;;14.20;7.60;;;22.60;99.90;;;;;;6251265;22;20022;-92
2023/07/02 01:41:12;;;;;;;19.15;8.18;;;22.60;99.90;;;;;;6231183;23;20043;-91
2023/07/02 01:43:52;;;;;;;15.77;8.15;;;22.60;99.90;;;;;;6221640;23;20458;-91
2023/07/02 01:46:40;;;;;;;15.10;8.20;;;22.50;99.90;;;;;;6228513;23;20039;-94
2023/07/02 01:49:33;;;;;;;15.60;7.70;;;22.50;99.90;;;;;;6199340;23;20028;-92
2023/07/02 01:52:38;;;;;;;;;;;;;;;;;;;;;
2023/07/02 01:58:34;;;;;;;15.60;7.70;;;22.40;99.90;;;;;;6205487;23;20000;-94
2023/07/02 02:01:46;;;;;;;;;;;;;;;;;;;;;
2023/07/02 02:04:41;;;;;;;15.48;9.23;;;22.40;99.90;;;;;;6127805;23;20013;-92
2023/07/02 02:07:26;;;;;;;;;;;;;;;;;;;;;
2023/07/02 02:11:16;;;;;;;18.13;9.00;;;22.40;99.90;;;;;;6098338;23;20011;-94
2023/07/02 02:17:35;;;;;;;15.10;8.45;;;22.30;99.90;;;;;;5987842;24;20016;-92
2023/07/02 02:20:55;;;;;;;24.48;8.95;;;22.20;99.90;;;;;;5969589;24;20032;-94
2023/07/02 02:24:02;;;;;;;;;;;;;;;;;;;;;
2023/07/02 02:27:10;;;;;;;17.20;8.27;;;22.20;99.90;;;;;;5959953;24;20008;-92
2023/07/02 02:29:59;;;;;;;15.68;7.18;;;22.20;99.90;;;;;;5924276;22;20089;-92
2023/07/02 02:36:28;;;;;;;20.35;8.60;;;22.20;99.90;;;;;;6096709;23;20093;-92
2023/07/02 02:39:34;;;;;;;16.75;8.68;;;22.20;99.90;;;;;;5891779;24;20018;-92
2023/07/02 02:42:48;;;;;;;15.20;8.65;;;22.20;99.90;;;;;;5856018;24;20034;-92
2023/07/02 02:53:11;;;;;;;;;;;;;;;;;;;;;
2023/07/02 03:00:11;;;;;;;;;;;;;;;;;;;;;
2023/07/02 03:11:39;;;;;;;;;;;;;;;;;;;;;
2023/07/02 03:18:51;;;;;;;;;;;;;;;;;;;;;
2023/07/02 05:57:49;;;;;;;24.50;22.30;;;32.60;99.90;;;;;;5933187;24;20352;-92
2023/07/02 06:00:18;;;;;;;;;;;31.50;99.90;;;;;;5968429;24;20095;-89
2023/07/02 06:02:47;;;;;;;24.38;22.05;;;30.30;99.90;;;;;;5932150;24;19969;-85
2023/07/02 06:05:14;;;;;;;24.25;21.88;;;30.50;99.90;;;;;;5982512;24;20174;-85
2023/07/02 06:07:41;;;;;;;23.58;21.58;;;30.80;99.90;;;;;;5936489;24;20004;-85
2023/07/02 06:10:08;;;;;;;23.90;21.67;;;31.20;99.90;;;;;;5936036;24;20534;-85
2023/07/02 06:12:34;;;;;;;24.17;22.08;;;30.90;99.90;;;;;;5936402;24;20008;-86
2023/07/02 06:15:00;;;;;;;23.67;21.83;;;31.40;99.90;;;;;;5936203;24;20016;-86
2023/07/02 06:17:27;;;;;;;22.92;21.15;;;30.80;99.90;;;;;;5936535;24;20004;-86
2023/07/02 06:19:53;;;;;;;23.45;21.00;;;31.00;99.90;;;;;;5936180;24;20043;-85
2023/07/02 06:22:20;;;;;;;22.33;20.80;;;30.90;99.90;;;;;;5936220;24;20008;-86
2023/07/02 06:24:49;;;;;;;24.23;21.13;;;30.90;99.90;;;;;;5981212;23;20016;-86
2023/07/02 06:27:18;;;;;;;23.38;21.38;;;31.00;99.90;;;;;;6185902;23;20005;-88
2023/07/02 09:58:51;;;;;;;;;;;;;;;;;;;;;
2023/07/02 10:01:47;;;;;;;21.27;19.75;;;30.50;99.90;;;;;;6157595;23;20032;-93
2023/07/02 10:04:25;;;;;;;21.50;19.83;;;30.50;99.90;;;;;;6250026;22;20037;-94
2023/07/02 10:09:53;;;;;;;21.90;20.10;;;30.30;99.90;;;;;;6263183;22;20011;-93
2023/07/02 10:12:45;;;;;;;21.60;19.73;;;30.50;99.90;;;;;;6265030;22;20023;-93
2023/07/02 11:26:03;;;;;;;20.80;19.38;;;29.50;99.90;;;;;;6368467;22;20037;-93
2023/07/02 11:29:07;;;;;;;21.10;19.27;;;28.90;99.90;;;;;;6343778;22;20021;-95
2023/07/02 11:32:13;;;;;;;22.08;20.20;;;29.30;99.90;;;;;;6294059;22;20014;-93
2023/07/02 11:35:06;;;;;;;21.05;19.15;;;29.20;99.90;;;;;;6291686;22;20082;-94
2023/07/02 11:38:10;;;;;;;;;;;;;;;;;;;;;
2023/07/02 11:41:29;;;;;;;20.77;19.27;;;29.40;99.90;;;;;;6216096;23;20008;-94
2023/07/02 11:48:04;;;;;;;21.58;19.77;;;28.90;99.90;;;;;;6204828;23;20023;-94
2023/07/02 12:48:42;;;;;;;19.55;18.25;;;28.90;99.90;;;;;;6308582;22;20062;-93
2023/07/02 15:12:01;;;;;;;20.15;18.55;;;28.20;99.90;;;;;;6331766;22;20036;-92
2023/07/02 15:14:54;;;;;;;19.88;18.40;;;28.10;99.90;;;;;;6268219;22;20076;-92
2023/07/02 15:17:20;;;;;;;20.02;18.48;;;28.20;99.90;;;;;;6280360;22;20081;-91
2023/07/02 15:19:47;;;;;;;19.77;18.30;;;28.20;99.90;;;;;;6287397;22;20014;-88
2023/07/02 15:22:13;;;;;;;20.52;18.83;;;28.40;99.90;;;;;;6288087;22;20017;-84
2023/07/02 15:24:39;;;;;;;20.55;18.80;;;28.70;99.90;;;;;;6341162;22;20491;-87
2023/07/02 15:27:07;;;;;;;20.58;18.60;;;28.60;99.90;;;;;;6288308;22;20030;-87
2023/07/02 15:29:34;;;;;;;19.60;18.25;;;28.40;99.90;;;;;;6288067;22;20063;-86
2023/07/02 15:32:03;;;;;;;19.90;18.33;;;28.20;99.90;;;;;;6287053;22;20419;-88
2023/07/02 15:34:30;;;;;;;19.33;18.00;;;28.20;99.90;;;;;;6288710;22;20002;-90
2023/07/02 15:36:57;;;;;;;19.15;17.98;;;28.20;99.90;;;;;;6286862;22;20003;-85
2023/07/02 15:39:24;;;;;;;19.23;17.67;;;28.30;99.90;;;;;;6286699;22;20003;-84
2023/07/02 15:41:51;;;;;;;20.25;18.73;;;28.20;99.90;;;;;;6287674;22;19999;-93
2023/07/02 15:44:20;;;;;;;19.80;18.40;;;28.10;99.90;;;;;;6292757;22;20041;-88
2023/07/02 15:49:39;;;;;;;18.77;17.48;;;27.90;99.90;;;;;;6251037;22;20020;-93
2023/07/02 15:52:06;;;;;;;18.90;17.48;;;27.70;99.90;;;;;;6225914;22;20012;-91
2023/07/02 15:54:32;;;;;;;19.95;18.25;;;27.90;99.90;;;;;;6225704;22;20004;-90
2023/07/02 15:56:59;;;;;;;19.80;17.75;;;28.10;99.90;;;;;;6225548;22;20007;-92
2023/07/02 15:59:26;;;;;;;19.15;17.80;;;28.10;99.90;;;;;;6251544;22;20095;-91
2023/07/02 16:01:52;;;;;;;19.30;17.80;;;28.00;99.90;;;;;;6225974;22;20444;-92
2023/07/02 16:04:25;;;;;;;19.45;18.05;;;28.00;99.90;;;;;;6250930;22;20368;-90
2023/07/02 16:06:52;;;;;;;18.25;17.05;;;28.00;99.90;;;;;;6250802;22;20369;-91
2023/07/02 16:09:20;;;;;;;19.30;17.60;;;28.10;99.90;;;;;;6251039;22;20004;-90
2023/07/02 16:11:47;;;;;;;18.77;17.38;;;27.80;99.90;;;;;;6250785;22;20054;-91
2023/07/02 16:14:18;;;;;;;18.77;17.35;;;27.60;99.90;;;;;;6250972;22;20004;-92
2023/07/02 16:16:47;;;;;;;18.35;17.13;;;27.40;99.90;;;;;;6250945;22;20008;-90
2023/07/02 16:19:15;;;;;;;18.58;17.17;;;27.30;99.90;;;;;;6251018;22;20012;-92
2023/07/02 16:21:42;;;;;;;18.40;16.67;;;27.40;99.90;;;;;;6251043;22;20007;-91
2023/07/02 16:24:30;;;;;;;18.05;16.80;;;27.40;99.90;;;;;;6251792;22;20034;-91
2023/07/02 16:26:57;;;;;;;18.77;17.30;;;27.40;99.90;;;;;;6261065;22;20011;-90
2023/07/02 16:29:27;;;;;;;18.95;17.30;;;27.60;99.90;;;;;;6262817;22;20011;-92
2023/07/02 16:31:55;;;;;;;17.83;16.20;;;27.50;99.90;;;;;;6226045;22;20517;-90
2023/07/02 16:34:23;;;;;;;17.95;16.60;;;27.40;99.90;;;;;;6250674;22;20012;-91
2023/07/02 16:36:49;;;;;;;17.48;16.17;;;27.30;99.90;;;;;;6250620;22;19999;-90
2023/07/02 16:39:17;;;;;;;18.23;16.90;;;27.20;99.90;;;;;;6276158;22;20008;-89
2023/07/02 16:41:50;;;;;;;18.60;17.00;;;27.00;99.90;;;;;;6225587;22;20042;-91
2023/07/02 16:44:25;;;;;;;18.73;16.98;;;26.80;99.90;;;;;;6277017;22;20087;-91
2023/07/02 16:46:54;;;;;;;18.02;16.50;;;26.90;99.90;;;;;;6276323;22;20016;-91
2023/07/02 16:49:26;;;;;;;17.80;16.48;;;27.00;99.90;;;;;;6255635;22;20019;-91
2023/07/02 16:51:54;;;;;;;19.00;17.45;;;27.00;99.90;;;;;;6281469;22;20011;-91
2023/07/02 16:54:22;;;;;;;18.75;17.35;;;26.90;99.90;;;;;;6255921;22;20010;-91
2023/07/02 16:56:55;;;;;;;18.35;17.05;;;26.80;99.90;;;;;;6281348;22;20007;-92
2023/07/02 16:59:25;;;;;;;18.75;17.38;;;26.80;99.90;;;;;;6255790;22;20004;-89
2023/07/02 17:01:59;;;;;;;19.15;17.55;;;26.60;99.90;;;;;;6255721;22;20027;-91
2023/07/02 17:04:26;;;;;;;;;;;26.80;99.90;;;;;;6281831;22;20038;-90
2023/07/02 17:06:54;;;;;;;17.70;16.55;;;26.80;99.90;;;;;;6281272;22;19906;-91
2023/07/02 17:09:36;;;;;;;18.33;17.02;;;26.70;99.90;;;;;;6255458;22;20016;-92
2023/07/02 17:12:20;;;;;;;18.00;16.80;;;26.60;99.90;;;;;;6280576;22;20042;-92
2023/07/02 17:14:51;;;;;;;18.30;16.85;;;26.50;99.90;;;;;;6280995;22;20007;-91
2023/07/02 17:17:21;;;;;;;18.67;17.05;;;26.30;99.90;;;;;;6280967;22;20008;-91
2023/07/02 17:19:50;;;;;;;17.20;15.95;;;26.20;99.90;;;;;;6255457;22;20023;-90
2023/07/02 17:22:19;;;;;;;17.58;16.40;;;26.10;99.90;;;;;;6280766;22;20017;-92
2023/07/02 17:24:50;;;;;;;18.00;16.60;;;26.10;99.90;;;;;;6255727;22;20424;-92
2023/07/02 17:27:22;;;;;;;17.48;16.08;;;26.10;99.90;;;;;;6280790;22;20038;-90
2023/07/02 17:29:55;;;;;;;18.25;16.63;;;26.00;99.90;;;;;;6255129;22;20003;-91
2023/07/02 17:32:24;;;;;;;17.98;16.67;;;25.90;99.90;;;;;;6280798;22;20034;-93
2023/07/02 17:34:51;;;;;;;19.10;17.70;;;25.80;99.90;;;;;;6255119;22;20086;-91
2023/07/02 17:37:20;;;;;;;18.67;17.00;;;25.60;99.90;;;;;;6306735;22;20011;-92
2023/07/02 17:39:47;;;;;;;18.33;17.13;;;25.50;99.90;;;;;;6282410;22;20007;-92
2023/07/02 17:42:16;;;;;;;18.42;17.23;;;25.40;99.90;;;;;;6256724;22;20090;-92
2023/07/02 17:44:45;;;;;;;18.95;17.75;;;25.30;99.90;;;;;;6282800;22;20030;-91
2023/07/02 17:47:17;;;;;;;19.30;17.85;;;25.30;99.90;;;;;;6257703;22;20094;-91
2023/07/02 17:49:45;;;;;;;19.40;18.00;;;25.10;99.90;;;;;;6282776;22;20007;-91
2023/07/02 17:52:18;;;;;;;19.75;18.08;;;25.00;99.90;;;;;;6257248;22;20007;-91
2023/07/02 17:54:53;;;;;;;19.67;18.02;;;24.90;99.90;;;;;;6282417;22;20078;-93
2023/07/02 17:57:21;;;;;;;18.60;17.23;;;25.00;99.90;;;;;;6283077;22;20068;-93
2023/07/02 17:59:48;;;;;;;18.80;17.40;;;25.00;99.90;;;;;;6257357;22;20010;-94
2023/07/02 18:02:16;;;;;;;19.40;18.02;;;24.90;99.90;;;;;;6257676;22;20003;-92
2023/07/02 18:04:44;;;;;;;19.50;18.10;;;24.90;99.90;;;;;;6257741;22;20031;-92
2023/07/02 18:07:12;;;;;;;18.83;17.58;;;24.90;99.90;;;;;;6257387;22;20003;-92
2023/07/02 18:09:44;;;;;;;19.63;18.02;;;24.90;99.90;;;;;;6283129;22;20018;-93
2023/07/02 18:12:11;;;;;;;19.65;18.25;;;24.80;99.90;;;;;;6283335;22;20097;-93
2023/07/02 18:14:42;;;;;;;19.70;18.08;;;24.70;99.90;;;;;;6258053;22;19999;-92
2023/07/02 18:17:11;;;;;;;19.02;17.70;;;24.50;99.90;;;;;;6284838;22;20007;-93
2023/07/02 18:19:38;;;;;;;19.33;17.83;;;24.40;99.90;;;;;;6260852;22;20006;-92
2023/07/02 18:22:05;;;;;;;19.70;18.10;;;24.40;99.90;;;;;;6310463;22;19999;-92
2023/07/02 18:24:35;;;;;;;19.85;18.35;;;24.30;99.90;;;;;;6263466;22;20078;-92
2023/07/02 18:27:03;;;;;;;20.52;18.92;;;24.30;99.90;;;;;;6257509;22;20440;-93
2023/07/02 18:29:31;;;;;;;19.67;18.27;;;24.30;99.90;;;;;;6257120;22;20034;-92
2023/07/02 18:32:04;;;;;;;19.70;17.80;;;24.30;99.90;;;;;;6282440;22;20128;-95
2023/07/02 18:34:33;;;;;;;19.00;17.55;;;24.20;99.90;;;;;;6282391;22;20007;-93
2023/07/02 18:37:04;;;;;;;18.63;17.20;;;24.10;99.90;;;;;;6257252;22;20007;-93
2023/07/02 18:39:35;;;;;;;18.03;16.73;;;24.00;99.90;;;;;;6257609;22;20062;-93
2023/07/02 18:42:04;;;;;;;18.20;16.55;;;24.00;99.90;;;;;;6282560;22;20011;-92
2023/07/02 18:44:34;;;;;;;17.67;16.17;;;24.00;99.90;;;;;;6257424;22;20011;-93
2023/07/02 18:47:11;;;;;;;16.50;15.20;;;24.00;99.90;;;;;;6282354;22;20014;-93
2023/07/02 18:49:39;;;;;;;16.52;15.23;;;23.90;99.90;;;;;;6257260;22;20022;-92
2023/07/02 18:52:16;;;;;;;16.25;14.85;;;23.90;99.90;;;;;;6282441;22;20011;-92
2023/07/02 18:54:47;;;;;;;15.60;14.30;;;23.80;99.90;;;;;;6282507;22;20424;-92
2023/07/02 18:57:14;;;;;;;15.52;14.07;;;23.70;99.90;;;;;;6308144;22;20011;-91
2023/07/02 18:59:51;;;;;;;15.15;14.00;;;23.70;99.90;;;;;;6256592;22;20003;-92
2023/07/02 19:02:18;;;;;;;15.02;13.57;;;23.80;99.90;;;;;;6282217;22;20007;-91
2023/07/02 19:04:50;;;;;;;14.55;13.43;;;23.70;99.90;;;;;;6256776;22;20056;-93
2023/07/02 19:07:16;;;;;;;14.25;13.15;;;23.70;99.90;;;;;;6256762;22;20007;-92
2023/07/02 19:09:43;;;;;;;15.45;13.82;;;23.60;99.90;;;;;;6298878;22;20385;-72
2023/07/02 20:06:19;;;;;;;13.13;11.93;;;23.70;99.90;;;;;;6276754;22;20367;-92
2023/07/02 20:08:48;;;;;;;13.40;12.20;;;23.70;99.90;;;;;;6281480;22;20014;-87
2023/07/02 20:11:15;;;;;;;15.32;12.50;;;23.60;99.90;;;;;;6281617;22;20019;-87
2023/07/02 20:13:41;;;;;;;13.00;11.90;;;23.60;99.90;;;;;;6281539;22;20136;-87
2023/07/02 20:16:08;;;;;;;16.45;13.73;;;23.50;99.90;;;;;;6281599;22;20035;-89
2023/07/02 20:18:36;;;;;;;14.30;12.63;;;23.50;99.90;;;;;;6256232;22;20091;-87
2023/07/02 20:21:06;;;;;;;14.02;12.68;;;23.40;99.90;;;;;;6256250;22;20007;-87
2023/07/02 20:23:36;;;;;;;14.50;12.65;;;23.40;99.90;;;;;;6256183;22;20042;-89
2023/07/02 20:26:03;;;;;;;15.02;12.73;;;23.40;99.90;;;;;;6256231;22;20007;-87
2023/07/02 20:28:32;;;;;;;12.98;11.95;;;23.40;99.90;;;;;;6256168;22;20348;-88
2023/07/02 20:31:03;;;;;;;13.90;12.60;;;23.30;99.90;;;;;;6255750;22;20090;-85
2023/07/02 20:33:31;;;;;;;13.20;11.82;;;23.40;99.90;;;;;;6255735;22;20007;-88
2023/07/02 20:35:58;;;;;;;13.52;11.38;;;23.30;99.90;;;;;;6255978;22;20064;-87
2023/07/02 20:38:26;;;;;;;12.13;10.98;;;23.30;99.90;;;;;;6255880;22;20069;-88
2023/07/02 20:41:03;;;;;;;13.75;11.50;;;23.30;99.90;;;;;;6256023;22;20008;-88
2023/07/02 20:43:42;;;;;;;11.63;10.73;;;23.20;99.90;;;;;;6256116;22;20011;-88
2023/07/02 20:46:12;;;;;;;12.85;10.70;;;23.20;99.90;;;;;;6256471;22;20459;-88
2023/07/02 20:48:43;;;;;;;12.13;10.95;;;23.20;99.90;;;;;;6256186;22;20456;-90
2023/07/02 20:51:10;;;;;;;12.23;11.02;;;23.20;99.90;;;;;;6255650;22;20021;-88
2023/07/02 20:53:37;;;;;;;15.48;10.35;;;23.20;99.90;;;;;;6256272;22;20000;-90
2023/07/02 20:56:05;;;;;;;16.05;10.57;;;23.20;99.90;;;;;;6255908;22;20550;-88
2023/07/02 20:58:32;;;;;;;13.65;11.00;;;23.20;99.90;;;;;;6255856;22;19999;-89
2023/07/02 21:01:12;;;;;;;13.82;11.05;;;23.20;99.90;;;;;;6281404;22;20436;-88
2023/07/02 21:03:39;;;;;;;14.05;11.75;;;23.10;99.90;;;;;;6255801;22;20014;-87
2023/07/02 21:06:10;;;;;;;13.57;11.15;;;23.10;99.90;;;;;;6250605;22;20106;-88
2023/07/02 21:08:38;;;;;;;11.75;10.63;;;23.10;99.90;;;;;;6251049;22;20030;-87
2023/07/02 21:11:06;;;;;;;13.23;11.32;;;23.10;99.90;;;;;;6250623;22;20016;-87
2023/07/02 21:13:33;;;;;;;13.23;10.60;;;23.10;99.90;;;;;;6251953;22;20146;-88
2023/07/02 21:16:01;;;;;;;11.43;10.23;;;22.90;99.90;;;;;;6252764;22;20008;-90
2023/07/02 21:18:28;;;;;;;12.30;10.15;;;22.90;99.90;;;;;;6252653;22;20031;-88
2023/07/02 21:20:55;;;;;;;10.85;9.65;;;22.90;99.90;;;;;;6254194;22;20030;-89
2023/07/02 21:23:21;;;;;;;10.68;9.60;;;22.80;99.90;;;;;;6252940;22;20061;-90
2023/07/02 21:25:59;;;;;;;9.88;9.00;;;22.80;99.90;;;;;;6252876;22;20030;-88
2023/07/02 21:28:26;;;;;;;13.27;9.68;;;22.80;99.90;;;;;;6252976;22;20062;-88
2023/07/02 21:30:52;;;;;;;12.23;9.43;;;22.90;99.90;;;;;;6252597;22;20015;-90
2023/07/02 21:33:19;;;;;;;9.40;8.52;;;22.90;99.90;;;;;;6252626;22;20012;-90
2023/07/02 21:35:46;;;;;;;11.30;8.95;;;22.90;99.90;;;;;;6252675;22;20081;-88
2023/07/02 21:38:14;;;;;;;11.07;8.68;;;22.90;99.90;;;;;;6252554;22;20348;-87
2023/07/02 21:40:43;;;;;;;12.90;8.98;;;22.90;99.90;;;;;;6252776;22;20007;-90
2023/07/02 21:43:11;;;;;;;9.93;9.02;;;22.80;99.90;;;;;;6254176;22;20038;-88
2023/07/02 21:45:38;;;;;;;12.32;8.88;;;22.80;99.90;;;;;;6251843;22;20057;-90
2023/07/02 21:48:06;;;;;;;15.10;9.63;;;22.70;99.90;;;;;;6252525;22;20064;-88
2023/07/02 21:50:34;;;;;;;10.48;9.57;;;22.70;99.90;;;;;;6252414;22;20023;-88
2023/07/02 21:53:01;;;;;;;12.73;10.15;;;22.70;99.90;;;;;;6252438;22;20173;-88
2023/07/02 21:55:27;;;;;;;10.82;9.70;;;22.60;99.90;;;;;;6252589;22;20011;-89
2023/07/02 21:57:54;;;;;;;10.80;9.70;;;22.60;99.90;;;;;;6252587;22;20004;-89
2023/07/02 22:00:21;;;;;;;11.00;9.98;;;22.60;99.90;;;;;;6252148;22;20012;-90
2023/07/02 22:02:47;;;;;;;12.75;10.27;;;22.60;99.90;;;;;;6277780;22;20015;-89
2023/07/02 22:05:15;;;;;;;11.57;10.00;;;22.50;99.90;;;;;;6252102;22;20060;-87
2023/07/02 22:07:43;;;;;;;10.23;9.32;;;22.50;99.90;;;;;;6251949;22;20026;-87
2023/07/02 22:10:12;;;;;;;14.95;9.77;;;22.50;99.90;;;;;;6251946;22;20436;-87
2023/07/02 22:12:38;;;;;;;10.35;9.30;;;22.50;99.90;;;;;;6252011;22;20008;-86
2023/07/02 22:15:06;;;;;;;14.70;10.25;;;22.40;99.90;;;;;;6278267;22;20425;-87
2023/07/02 22:17:32;;;;;;;15.48;9.80;;;22.40;99.90;;;;;;6252194;22;20390;-87
2023/07/02 22:20:10;;;;;;;13.65;9.32;;;22.40;99.90;;;;;;6252112;22;20043;-86
2023/07/02 22:22:38;;;;;;;13.38;9.80;;;22.40;99.90;;;;;;6252150;22;20099;-87
2023/07/02 22:25:08;;;;;;;9.95;9.05;;;22.40;99.90;;;;;;6251619;22;20443;-87
2023/07/02 22:27:35;;;;;;;11.60;8.90;;;22.40;99.90;;;;;;6251885;22;20353;-86
2023/07/02 22:30:04;;;;;;;15.27;9.00;;;22.50;99.90;;;;;;6252139;22;20015;-88
2023/07/02 22:32:32;;;;;;;11.68;8.65;;;22.60;99.90;;;;;;6252183;22;20091;-87
2023/07/02 22:34:59;;;;;;;13.73;9.00;;;22.60;99.90;;;;;;6251952;22;20465;-87
2023/07/02 22:37:27;;;;;;;13.00;9.10;;;22.60;99.90;;;;;;6251971;22;20388;-87
2023/07/02 22:39:57;;;;;;;9.98;8.80;;;22.60;99.90;;;;;;6251746;22;20004;-87
2023/07/02 22:42:24;;;;;;;10.98;8.68;;;22.60;99.90;;;;;;6251898;22;20046;-87
2023/07/02 22:44:51;;;;;;;12.02;8.27;;;22.60;99.90;;;;;;6251858;22;20039;-87
2023/07/02 22:47:18;;;;;;;10.55;7.20;;;22.60;99.90;;;;;;6251684;22;20004;-86
2023/07/02 22:49:44;;;;;;;9.32;7.57;;;22.60;99.90;;;;;;6251891;22;20007;-86
2023/07/02 22:52:10;;;;;;;11.45;8.40;;;22.50;99.90;;;;;;6251459;22;20046;-85
2023/07/02 22:54:37;;;;;;;9.38;8.43;;;22.50;99.90;;;;;;6251065;22;20337;-84
2023/07/02 22:57:06;;;;;;;12.13;7.95;;;22.50;99.90;;;;;;6250955;22;20003;-84
2023/07/02 22:59:32;;;;;;;10.68;7.60;;;22.50;99.90;;;;;;6251103;22;20011;-85
2023/07/02 23:02:00;;;;;;;9.10;7.30;;;22.50;99.90;;;;;;6276727;22;19999;-85
2023/07/02 23:04:26;;;;;;;9.55;8.18;;;22.50;99.90;;;;;;6251126;22;20054;-84
2023/07/02 23:10:07;;;;;;;;;;;;;;;;;;;;;
2023/07/02 23:34:10;;;;;;;8.27;6.97;;;22.50;99.90;;;;;;6274626;22;20038;-91
2023/07/02 23:49:48;;;;;;;11.60;7.75;;;22.40;99.90;;;;;;6175394;23;20009;-92
2023/07/02 23:56:31;;;;;;;15.57;7.30;;;22.30;99.90;;;;;;5980792;24;20312;-94
2023/07/02 23:59:00;;;;;;;10.20;6.45;;;22.20;99.90;;;;;;5951304;24;20019;-93
